Time;durP1;ratioP1;P1;durP2;ratioP2;P2;SDS_P1;SDS_P2;PMS_P1;PMS_P2;Temp;Humidity;BMP_temperature;BMP_pressure;BME280_temperature;BME280_humidity;BME280_pressure;Samples;Min_cycle;Max_cycle;Signal;HPM_P1;HPM_P2
2024/01/11 00:00:48;;;;;;;2.58;1.60;;;3.80;58.90;;;;;;5012939;28;20103;-77
2024/01/11 00:03:18;;;;;;;3.40;1.95;;;3.80;58.90;;;;;;5015570;28;20036;-76
2024/01/11 00:05:44;;;;;;;1.77;1.63;;;3.80;58.90;;;;;;5016172;28;20509;-81
2024/01/11 00:08:11;;;;;;;3.92;2.08;;;3.80;58.90;;;;;;5010508;28;20176;-83
2024/01/11 00:10:38;;;;;;;5.93;1.80;;;3.70;58.80;;;;;;5014393;28;20566;-83
2024/01/11 00:13:04;;;;;;;3.53;1.70;;;3.70;58.70;;;;;;5014725;28;20111;-77
2024/01/11 00:15:30;;;;;;;1.60;1.45;;;3.70;58.70;;;;;;5010648;28;20578;-85
2024/01/11 00:17:56;;;;;;;3.33;1.75;;;3.70;58.80;;;;;;5012737;28;20030;-79
2024/01/11 00:20:22;;;;;;;5.15;1.80;;;3.80;59.00;;;;;;5015748;28;20496;-81
2024/01/11 00:22:48;;;;;;;3.58;2.10;;;3.70;58.80;;;;;;5012854;28;20060;-78
2024/01/11 00:25:14;;;;;;;2.35;1.27;;;3.70;58.80;;;;;;5010930;28;20080;-78
2024/01/11 00:27:40;;;;;;;3.08;1.60;;;3.70;58.80;;;;;;5008174;28;20033;-82
2024/01/11 00:30:07;;;;;;;2.55;1.90;;;3.70;58.80;;;;;;5019132;28;20053;-74
2024/01/11 00:32:33;;;;;;;3.80;1.75;;;3.80;59.00;;;;;;5014326;28;20037;-77
2024/01/11 00:34:59;;;;;;;2.00;1.48;;;3.70;59.30;;;;;;5014670;28;20026;-76
2024/01/11 00:37:25;;;;;;;3.42;1.30;;;3.80;59.00;;;;;;5016689;28;20493;-78
2024/01/11 00:39:52;;;;;;;4.70;2.40;;;3.80;59.00;;;;;;5016401;28;20061;-76
2024/01/11 00:42:17;;;;;;;2.58;1.60;;;3.80;59.00;;;;;;5014793;28;20030;-77
2024/01/11 00:44:45;;;;;;;5.18;1.90;;;3.70;58.80;;;;;;5012032;28;20473;-76
2024/01/11 00:47:11;;;;;;;2.42;1.63;;;3.70;58.80;;;;;;5014189;28;20460;-77
2024/01/11 00:49:37;;;;;;;2.20;1.40;;;3.70;58.80;;;;;;5010196;28;20054;-74
2024/01/11 00:52:03;;;;;;;3.03;1.73;;;3.70;58.80;;;;;;5018683;28;20030;-75
2024/01/11 00:54:30;;;;;;;2.38;1.85;;;3.70;58.80;;;;;;5014796;28;20041;-75
2024/01/11 00:56:56;;;;;;;3.75;1.88;;;3.70;58.80;;;;;;5016454;28;20209;-78
2024/01/11 00:59:22;;;;;;;2.08;1.40;;;3.70;58.80;;;;;;5032995;28;20549;-75
2024/01/11 01:01:49;;;;;;;2.15;1.40;;;3.70;58.80;;;;;;5032327;28;20029;-75
2024/01/11 01:04:15;;;;;;;2.70;1.85;;;3.70;58.90;;;;;;5038688;28;20041;-79
2024/01/11 01:06:42;;;;;;;4.78;2.33;;;3.70;58.90;;;;;;5036374;28;20185;-76
2024/01/11 01:09:08;;;;;;;4.68;1.65;;;3.70;58.90;;;;;;5041804;28;20040;-76
2024/01/11 01:11:34;;;;;;;2.33;1.73;;;3.70;58.90;;;;;;5030630;28;20116;-79
2024/01/11 01:14:00;;;;;;;4.13;2.47;;;3.70;58.90;;;;;;5014295;28;20111;-76
2024/01/11 01:16:29;;;;;;;8.65;2.95;;;3.70;58.90;;;;;;5017428;28;20029;-77
2024/01/11 01:18:55;;;;;;;3.45;2.13;;;3.70;58.90;;;;;;5013013;28;20037;-76
2024/01/11 01:21:21;;;;;;;2.70;1.77;;;3.70;58.90;;;;;;5014384;28;20132;-76
2024/01/11 01:23:47;;;;;;;3.75;1.90;;;3.70;58.90;;;;;;5014728;28;20451;-78
2024/01/11 01:26:13;;;;;;;3.42;1.85;;;3.70;58.90;;;;;;5015752;28;20041;-80
2024/01/11 01:28:40;;;;;;;2.58;1.67;;;3.70;58.90;;;;;;5021429;28;20144;-79
2024/01/11 01:31:06;;;;;;;2.35;2.00;;;3.70;58.90;;;;;;5011113;28;20061;-79
2024/01/11 01:33:32;;;;;;;2.30;1.95;;;3.70;58.90;;;;;;5021780;28;20049;-77
2024/01/11 01:35:58;;;;;;;2.85;1.90;;;3.70;58.90;;;;;;5021321;28;20452;-76
2024/01/11 01:38:24;;;;;;;4.85;2.38;;;3.70;58.90;;;;;;5011285;28;20021;-76
2024/01/11 01:40:50;;;;;;;1.83;1.70;;;3.70;59.00;;;;;;5013614;28;20111;-75
2024/01/11 01:43:16;;;;;;;2.00;1.50;;;3.70;59.00;;;;;;5016369;28;20038;-75
2024/01/11 01:45:43;;;;;;;5.15;1.88;;;3.60;58.80;;;;;;5011483;28;20109;-75
2024/01/11 01:48:09;;;;;;;4.40;2.10;;;3.70;59.00;;;;;;5011604;28;20045;-77
2024/01/11 01:50:36;;;;;;;3.65;1.88;;;3.60;58.80;;;;;;5013349;28;20038;-76
2024/01/11 01:53:05;;;;;;;2.88;1.73;;;3.60;58.80;;;;;;5013316;28;20041;-75
2024/01/11 01:55:32;;;;;;;4.78;2.45;;;3.60;58.80;;;;;;5010486;28;20032;-76
2024/01/11 01:57:59;;;;;;;4.13;2.03;;;3.60;58.90;;;;;;5009148;28;20034;-76
2024/01/11 02:00:26;;;;;;;3.63;1.90;;;3.60;58.90;;;;;;5014849;28;20497;-77
2024/01/11 02:02:55;;;;;;;2.30;1.63;;;3.60;58.90;;;;;;5004296;28;20029;-77
2024/01/11 02:05:21;;;;;;;1.90;1.45;;;3.60;58.90;;;;;;5033727;28;20409;-76
2024/01/11 02:07:47;;;;;;;1.80;1.70;;;3.60;58.90;;;;;;5013590;28;20068;-77
2024/01/11 02:10:13;;;;;;;2.08;1.88;;;3.60;58.90;;;;;;5012363;28;20421;-80
2024/01/11 02:12:41;;;;;;;2.95;1.60;;;3.60;58.90;;;;;;5015366;28;20037;-81
2024/01/11 02:15:07;;;;;;;1.98;1.85;;;3.60;58.90;;;;;;5011280;28;20401;-79
2024/01/11 02:17:33;;;;;;;5.03;1.73;;;3.60;58.90;;;;;;5015806;28;20291;-76
2024/01/11 02:20:00;;;;;;;3.92;2.45;;;3.60;58.90;;;;;;5014371;28;20367;-76
2024/01/11 02:22:38;;;;;;;4.82;1.98;;;3.60;59.00;;;;;;5007398;28;20037;-80
2024/01/11 02:25:04;;;;;;;3.08;1.88;;;3.60;59.00;;;;;;5016619;28;20469;-80
2024/01/11 02:27:30;;;;;;;5.15;2.15;;;3.50;58.80;;;;;;5011743;28;20049;-76
2024/01/11 02:29:57;;;;;;;4.70;1.85;;;3.60;59.00;;;;;;5014244;28;20029;-88
2024/01/11 02:32:24;;;;;;;4.13;1.77;;;3.60;59.00;;;;;;5009904;28;20021;-73
2024/01/11 02:34:50;;;;;;;5.20;2.17;;;3.60;59.00;;;;;;5014170;28;20033;-77
2024/01/11 02:37:18;;;;;;;3.67;1.77;;;3.60;59.00;;;;;;5018372;28;20052;-76
2024/01/11 02:39:44;;;;;;;5.25;2.10;;;3.60;59.00;;;;;;5012953;28;20021;-77
2024/01/11 02:42:11;;;;;;;2.30;1.70;;;3.60;59.10;;;;;;5013498;28;20083;-77
2024/01/11 02:44:38;;;;;;;1.92;1.40;;;3.60;59.10;;;;;;5012041;28;20029;-85
2024/01/11 02:47:04;;;;;;;3.05;2.00;;;3.60;59.10;;;;;;5017156;28;20493;-90
2024/01/11 02:49:30;;;;;;;3.20;2.03;;;3.60;59.10;;;;;;5018093;28;20092;-91
2024/01/11 02:51:56;;;;;;;3.15;2.20;;;3.50;58.90;;;;;;5011863;28;20026;-91
2024/01/11 02:54:23;;;;;;;2.47;1.70;;;3.60;59.10;;;;;;5002914;28;20037;-90
2024/01/11 02:56:49;;;;;;;2.58;2.20;;;3.50;58.90;;;;;;5007650;28;20165;-75
2024/01/11 02:59:16;;;;;;;3.97;2.17;;;3.50;59.00;;;;;;5015162;28;20053;-87
2024/01/11 03:01:42;;;;;;;5.88;3.25;;;3.50;59.00;;;;;;5017433;28;20018;-86
2024/01/11 03:04:08;;;;;;;3.05;2.00;;;3.50;59.00;;;;;;5013926;28;20033;-80
2024/01/11 03:06:34;;;;;;;4.25;1.83;;;3.50;59.00;;;;;;5016636;28;20425;-79
2024/01/11 03:09:00;;;;;;;3.92;1.90;;;3.50;59.00;;;;;;5019764;28;20025;-87
2024/01/11 03:11:26;;;;;;;3.50;2.35;;;3.50;59.10;;;;;;5016890;28;20051;-90
2024/01/11 03:13:53;;;;;;;2.72;2.00;;;3.50;59.00;;;;;;5018599;28;20022;-86
2024/01/11 03:16:19;;;;;;;4.60;2.28;;;3.60;59.20;;;;;;5018055;28;20104;-92
2024/01/11 03:18:45;;;;;;;3.85;1.85;;;3.60;59.20;;;;;;5017225;28;20034;-88
2024/01/11 03:21:12;;;;;;;5.82;2.63;;;3.50;59.10;;;;;;5018153;28;20037;-93
2024/01/11 03:23:38;;;;;;;3.22;1.90;;;3.50;59.10;;;;;;5014262;28;20493;-92
2024/01/11 03:26:18;;;;;;;2.55;1.95;;;3.50;59.10;;;;;;5011644;28;20038;-92
2024/01/11 03:28:44;;;;;;;3.92;2.33;;;3.50;59.10;;;;;;5013415;28;20068;-84
2024/01/11 03:31:10;;;;;;;3.03;1.85;;;3.50;59.10;;;;;;5010669;28;20045;-85
2024/01/11 03:33:36;;;;;;;4.25;2.20;;;3.60;59.30;;;;;;5020075;28;20040;-88
2024/01/11 03:36:09;;;;;;;3.00;1.95;;;3.50;59.10;;;;;;5018108;28;20033;-85
2024/01/11 03:38:36;;;;;;;7.85;2.30;;;3.50;59.20;;;;;;5013713;28;20087;-90
2024/01/11 03:41:08;;;;;;;3.15;1.92;;;3.50;59.20;;;;;;5011493;28;20037;-85
2024/01/11 03:43:34;;;;;;;3.03;2.00;;;3.50;59.70;;;;;;5014362;28;20113;-84
2024/01/11 03:46:00;;;;;;;4.18;1.75;;;3.50;59.20;;;;;;5009854;28;20034;-85
2024/01/11 03:48:26;;;;;;;2.45;1.90;;;3.50;59.20;;;;;;5014915;28;20088;-79
2024/01/11 03:50:52;;;;;;;3.30;1.88;;;3.50;59.20;;;;;;5019698;28;20547;-77
2024/01/11 03:53:18;;;;;;;2.97;1.83;;;3.50;59.20;;;;;;5014825;28;20234;-78
2024/01/11 03:55:44;;;;;;;3.67;1.83;;;3.50;59.20;;;;;;5019460;28;20052;-78
2024/01/11 03:58:10;;;;;;;3.13;1.70;;;3.50;59.20;;;;;;5011349;28;20505;-80
2024/01/11 04:00:36;;;;;;;3.15;2.08;;;3.50;59.30;;;;;;5016297;28;20039;-78
2024/01/11 04:03:03;;;;;;;5.97;2.60;;;3.50;59.30;;;;;;5013651;28;20030;-80
2024/01/11 04:05:29;;;;;;;2.10;1.88;;;3.50;59.30;;;;;;5016072;28;20029;-81
2024/01/11 04:07:55;;;;;;;2.60;2.13;;;3.50;59.30;;;;;;5020292;28;20525;-81
2024/01/11 04:10:21;;;;;;;4.82;2.15;;;3.60;59.50;;;;;;5014410;28;20072;-78
2024/01/11 04:12:48;;;;;;;5.00;2.33;;;3.60;59.50;;;;;;5012746;28;20030;-80
2024/01/11 04:15:14;;;;;;;3.58;2.53;;;3.50;59.30;;;;;;5017360;28;20062;-83
2024/01/11 04:17:40;;;;;;;4.18;1.95;;;3.60;59.50;;;;;;5017156;28;20029;-87
2024/01/11 04:20:08;;;;;;;3.72;2.58;;;3.60;59.50;;;;;;5017108;28;20040;-82
2024/01/11 04:22:35;;;;;;;5.15;2.00;;;3.60;59.50;;;;;;5017009;28;20025;-88
2024/01/11 04:25:01;;;;;;;2.95;2.30;;;3.60;59.50;;;;;;5017432;28;20112;-87
2024/01/11 04:27:27;;;;;;;4.22;2.22;;;3.60;59.50;;;;;;5018944;28;20141;-89
2024/01/11 04:29:53;;;;;;;6.55;2.30;;;3.60;59.50;;;;;;5015787;28;20072;-87
2024/01/11 04:32:19;;;;;;;8.73;2.38;;;3.60;59.60;;;;;;5019373;28;20029;-89
2024/01/11 04:34:45;;;;;;;6.25;2.00;;;3.60;59.50;;;;;;5016297;28;20033;-86
2024/01/11 04:37:11;;;;;;;3.45;2.03;;;3.60;59.60;;;;;;5017343;28;20084;-79
2024/01/11 04:39:37;;;;;;;4.93;1.77;;;3.60;59.60;;;;;;5013935;28;20111;-80
2024/01/11 04:42:03;;;;;;;4.95;2.25;;;3.60;59.60;;;;;;5017225;28;20037;-81
2024/01/11 04:44:29;;;;;;;5.47;3.17;;;3.60;59.60;;;;;;5017247;28;20037;-80
2024/01/11 04:46:55;;;;;;;3.38;2.00;;;3.70;59.80;;;;;;5018068;28;20164;-79
2024/01/11 04:49:21;;;;;;;5.85;2.45;;;3.70;59.80;;;;;;5019902;28;20033;-81
2024/01/11 04:51:47;;;;;;;3.83;2.28;;;3.70;59.80;;;;;;5019612;28;20076;-84
2024/01/11 04:54:13;;;;;;;3.65;2.15;;;3.70;59.80;;;;;;5019373;28;20061;-90
2024/01/11 04:56:39;;;;;;;4.03;2.63;;;3.70;59.80;;;;;;5021681;28;20033;-77
2024/01/11 04:59:05;;;;;;;4.50;2.88;;;3.70;59.80;;;;;;5012765;28;20509;-89
2024/01/11 05:01:30;;;;;;;8.25;2.92;;;3.70;59.80;;;;;;5021430;28;20104;-79
2024/01/11 05:03:57;;;;;;;5.55;2.70;;;3.70;59.80;;;;;;5017852;28;20105;-81
2024/01/11 05:06:24;;;;;;;4.55;3.13;;;3.70;59.80;;;;;;5017732;28;20018;-78
2024/01/11 05:08:52;;;;;;;3.58;2.08;;;3.80;59.90;;;;;;5018549;28;20033;-75
2024/01/11 05:11:27;;;;;;;4.20;2.58;;;3.70;59.70;;;;;;5020007;28;20045;-83
2024/01/11 05:13:53;;;;;;;4.95;2.85;;;3.80;59.90;;;;;;5035924;28;20029;-84
2024/01/11 05:16:22;;;;;;;4.50;2.92;;;3.80;59.90;;;;;;5008176;28;20030;-80
2024/01/11 05:18:49;;;;;;;4.10;2.70;;;3.80;59.90;;;;;;5016668;28;20036;-81
2024/01/11 05:21:14;;;;;;;5.10;3.40;;;3.80;59.90;;;;;;5016616;28;20254;-79
2024/01/11 05:23:41;;;;;;;3.00;2.30;;;3.80;59.90;;;;;;5015145;28;20022;-84
2024/01/11 05:26:09;;;;;;;10.00;2.50;;;3.80;59.90;;;;;;5014958;28;20044;-78
2024/01/11 05:28:35;;;;;;;6.95;3.20;;;3.80;60.00;;;;;;5014894;28;20040;-75
2024/01/11 05:31:01;;;;;;;3.95;2.40;;;3.80;60.00;;;;;;5012788;28;20363;-76
2024/01/11 05:33:27;;;;;;;5.05;2.38;;;3.80;59.90;;;;;;5019569;28;20191;-79
2024/01/11 05:35:53;;;;;;;4.80;2.58;;;3.80;59.90;;;;;;5017789;28;20416;-79
2024/01/11 05:38:20;;;;;;;5.63;2.65;;;3.80;60.00;;;;;;5017385;28;20036;-78
2024/01/11 05:40:46;;;;;;;5.20;2.60;;;3.80;59.90;;;;;;5017347;28;20033;-78
2024/01/11 05:43:12;;;;;;;4.72;2.65;;;3.80;59.90;;;;;;5021015;28;20044;-80
2024/01/11 05:45:38;;;;;;;4.82;2.97;;;3.80;59.90;;;;;;5013090;28;20382;-79
2024/01/11 05:48:05;;;;;;;6.70;2.80;;;3.80;59.90;;;;;;5006879;28;20054;-78
2024/01/11 05:50:32;;;;;;;7.55;2.72;;;3.90;60.00;;;;;;5016491;28;22061;-75
2024/01/11 05:52:58;;;;;;;3.58;2.50;;;3.90;60.00;;;;;;5021230;28;20052;-78
2024/01/11 05:55:24;;;;;;;5.78;2.67;;;3.90;60.00;;;;;;5036118;28;20013;-77
2024/01/11 05:57:51;;;;;;;5.70;2.42;;;3.90;60.00;;;;;;5027565;28;20112;-73
2024/01/11 06:00:17;;;;;;;3.90;2.65;;;3.90;60.00;;;;;;5014969;28;20034;-79
2024/01/11 06:02:43;;;;;;;3.97;2.40;;;3.90;60.00;;;;;;5017728;28;20026;-73
2024/01/11 06:05:09;;;;;;;4.90;2.45;;;3.90;60.00;;;;;;5017004;28;20121;-74
2024/01/11 06:07:36;;;;;;;5.05;2.63;;;3.90;60.00;;;;;;5007951;28;20112;-72
2024/01/11 06:10:02;;;;;;;4.03;2.60;;;3.90;59.90;;;;;;5011484;28;20040;-73
2024/01/11 06:12:29;;;;;;;6.32;2.83;;;3.90;59.90;;;;;;5034136;28;20025;-79
2024/01/11 06:14:54;;;;;;;7.30;2.85;;;3.90;59.90;;;;;;5021436;28;20090;-85
2024/01/11 06:17:21;;;;;;;8.13;2.78;;;3.90;59.90;;;;;;5014394;28;20045;-87
2024/01/11 06:19:47;;;;;;;7.32;2.17;;;3.90;59.90;;;;;;5016599;28;20021;-80
2024/01/11 06:22:12;;;;;;;5.05;2.70;;;3.90;59.90;;;;;;5029095;28;20286;-78
2024/01/11 06:24:38;;;;;;;4.68;2.85;;;3.90;59.90;;;;;;5015572;28;20108;-92
2024/01/11 06:27:05;;;;;;;4.57;2.63;;;3.90;59.90;;;;;;5010036;28;20037;-80
2024/01/11 06:29:30;;;;;;;6.78;2.60;;;3.90;59.90;;;;;;5014181;28;20491;-78
2024/01/11 06:31:57;;;;;;;3.75;2.05;;;3.90;59.90;;;;;;5010716;28;20524;-88
2024/01/11 06:34:22;;;;;;;2.92;2.40;;;3.90;59.90;;;;;;5009076;28;20152;-81
2024/01/11 06:36:49;;;;;;;3.58;2.05;;;3.90;59.90;;;;;;5011353;28;20116;-81
2024/01/11 06:39:15;;;;;;;5.32;2.38;;;3.90;59.80;;;;;;5008653;28;20034;-81
2024/01/11 06:41:41;;;;;;;3.80;2.42;;;3.90;59.90;;;;;;5012731;28;20279;-80
2024/01/11 06:44:07;;;;;;;5.07;2.88;;;3.90;59.80;;;;;;5007610;28;20592;-80
2024/01/11 06:46:33;;;;;;;6.47;2.58;;;3.90;59.80;;;;;;4964232;28;1177937;-83
2024/01/11 06:48:59;;;;;;;3.85;2.92;;;3.90;59.80;;;;;;5017854;28;20065;-82
2024/01/11 06:51:25;;;;;;;4.55;2.05;;;3.90;59.80;;;;;;5008092;28;20113;-83
2024/01/11 06:53:51;;;;;;;5.65;2.55;;;3.90;59.90;;;;;;4997910;28;20445;-75
2024/01/11 06:56:22;;;;;;;7.85;2.55;;;4.00;60.10;;;;;;5002153;28;20091;-75
2024/01/11 06:58:49;;;;;;;4.85;2.60;;;4.00;60.10;;;;;;5014447;28;20052;-76
2024/01/11 07:01:15;;;;;;;6.57;2.40;;;4.00;60.20;;;;;;5010036;28;20045;-81
2024/01/11 07:03:42;;;;;;;5.57;2.40;;;4.10;60.50;;;;;;5011588;28;20080;-85
2024/01/11 07:06:08;;;;;;;6.63;3.33;;;4.10;60.50;;;;;;5015162;28;20037;-82
2024/01/11 07:08:34;;;;;;;7.15;2.42;;;4.20;60.60;;;;;;5020133;28;20029;-81
2024/01/11 07:11:04;;;;;;;6.25;2.33;;;4.20;60.60;;;;;;5016397;28;20029;-78
2024/01/11 07:13:33;;;;;;;6.47;2.78;;;4.20;60.50;;;;;;5015442;28;20111;-82
2024/01/11 07:16:00;;;;;;;4.07;2.40;;;4.20;60.50;;;;;;5012962;28;20037;-77
2024/01/11 07:18:27;;;;;;;6.32;2.70;;;4.20;60.40;;;;;;5014550;28;20591;-85
2024/01/11 07:20:53;;;;;;;5.47;2.80;;;4.20;60.40;;;;;;5010182;28;20405;-73
2024/01/11 07:23:19;;;;;;;3.53;2.60;;;4.20;60.40;;;;;;5009641;28;20033;-84
2024/01/11 07:25:45;;;;;;;5.47;2.65;;;4.20;60.40;;;;;;5014578;28;20124;-77
2024/01/11 07:28:11;;;;;;;4.10;2.38;;;4.20;60.40;;;;;;5015210;28;20603;-80
2024/01/11 07:30:37;;;;;;;4.80;2.63;;;4.20;60.40;;;;;;5010576;28;20085;-78
2024/01/11 07:33:04;;;;;;;5.45;2.30;;;4.30;60.60;;;;;;5013515;28;20062;-73
2024/01/11 07:35:31;;;;;;;5.10;2.30;;;4.30;60.60;;;;;;5014675;28;20053;-78
2024/01/11 07:37:57;;;;;;;3.58;2.65;;;4.30;60.50;;;;;;5009839;28;20022;-77
2024/01/11 07:40:23;;;;;;;5.25;3.03;;;4.30;60.50;;;;;;5010098;28;20030;-79
2024/01/11 07:42:51;;;;;;;4.75;3.60;;;4.30;60.50;;;;;;5017676;28;20030;-81
2024/01/11 07:45:17;;;;;;;5.90;2.47;;;4.30;60.40;;;;;;5012499;28;20292;-79
2024/01/11 07:47:42;;;;;;;4.47;2.20;;;4.30;60.40;;;;;;5009111;28;20310;-76
2024/01/11 07:50:12;;;;;;;5.28;2.63;;;4.30;60.30;;;;;;5010759;28;20124;-75
2024/01/11 07:52:41;;;;;;;4.32;2.35;;;4.30;60.30;;;;;;5014053;28;20038;-77
2024/01/11 07:55:09;;;;;;;5.45;2.25;;;4.30;60.80;;;;;;5008444;28;20480;-77
2024/01/11 07:57:35;;;;;;;4.82;2.20;;;4.30;60.20;;;;;;5012890;28;20036;-77
2024/01/11 08:00:03;;;;;;;4.43;2.70;;;4.30;60.20;;;;;;5013016;28;20029;-79
2024/01/11 08:02:38;;;;;;;4.70;2.35;;;4.40;60.40;;;;;;5008875;28;20022;-76
2024/01/11 08:05:05;;;;;;;5.78;2.20;;;4.30;60.20;;;;;;5015067;28;20042;-72
2024/01/11 08:07:31;;;;;;;3.47;2.22;;;4.40;60.30;;;;;;5005231;28;20390;-76
2024/01/11 08:09:57;;;;;;;3.30;1.83;;;4.40;60.80;;;;;;5000796;28;20042;-73
2024/01/11 08:12:23;;;;;;;5.47;2.58;;;4.30;60.10;;;;;;5010888;28;20037;-75
2024/01/11 08:14:49;;;;;;;4.07;2.58;;;4.40;60.30;;;;;;5011196;28;20045;-77
2024/01/11 08:17:15;;;;;;;5.93;2.63;;;4.40;60.20;;;;;;5011100;28;20247;-76
2024/01/11 08:19:44;;;;;;;4.45;2.10;;;4.40;60.20;;;;;;5014616;28;20045;-78
2024/01/11 08:22:11;;;;;;;6.90;4.13;;;4.40;60.20;;;;;;5005810;28;20037;-73
2024/01/11 08:24:37;;;;;;;2.92;2.22;;;4.40;60.20;;;;;;5013377;28;20053;-73
2024/01/11 08:27:05;;;;;;;5.32;2.45;;;4.40;60.20;;;;;;5004646;28;20025;-77
2024/01/11 08:29:33;;;;;;;3.97;2.10;;;4.40;60.10;;;;;;5018256;28;20041;-79
2024/01/11 08:32:03;;;;;;;3.63;2.20;;;4.40;60.10;;;;;;5017742;28;20037;-78
2024/01/11 08:34:30;;;;;;;6.47;2.33;;;4.40;60.10;;;;;;5013195;28;20029;-76
2024/01/11 08:36:56;;;;;;;4.00;2.35;;;4.40;60.10;;;;;;5004053;28;20034;-76
2024/01/11 08:39:22;;;;;;;4.63;2.13;;;4.40;60.00;;;;;;5017411;28;20037;-77
2024/01/11 08:41:48;;;;;;;4.10;1.88;;;4.50;60.10;;;;;;5018428;28;20048;-75
2024/01/11 08:44:14;;;;;;;2.95;2.03;;;4.50;60.10;;;;;;5017844;28;20045;-75
2024/01/11 08:46:40;;;;;;;2.92;2.00;;;4.50;60.00;;;;;;5016619;28;20099;-73
2024/01/11 08:49:06;;;;;;;2.85;1.40;;;4.50;60.00;;;;;;5018690;28;20041;-77
2024/01/11 08:51:32;;;;;;;3.20;1.75;;;4.40;59.80;;;;;;5015437;28;20033;-75
2024/01/11 08:53:58;;;;;;;4.65;2.00;;;4.50;59.90;;;;;;5016671;28;20291;-77
2024/01/11 08:56:25;;;;;;;4.40;2.00;;;4.50;59.90;;;;;;5018182;28;20037;-73
2024/01/11 08:58:52;;;;;;;5.07;2.00;;;4.50;59.90;;;;;;5019029;28;20029;-76
2024/01/11 09:01:19;;;;;;;2.30;1.70;;;4.50;59.90;;;;;;5019039;28;20079;-77
2024/01/11 09:03:45;;;;;;;3.58;1.63;;;4.50;59.90;;;;;;5022093;28;20037;-77
2024/01/11 09:06:11;;;;;;;2.95;2.20;;;4.50;59.80;;;;;;5014318;28;20033;-75
2024/01/11 09:08:38;;;;;;;4.45;1.70;;;4.50;59.80;;;;;;5010963;28;20292;-72
2024/01/11 09:11:04;;;;;;;3.67;1.45;;;4.50;59.80;;;;;;4994294;28;20067;-76
2024/01/11 09:13:30;;;;;;;3.60;1.70;;;4.50;59.70;;;;;;5007769;28;20034;-78
2024/01/11 09:15:56;;;;;;;3.42;2.15;;;4.50;59.70;;;;;;5014569;28;20044;-73
2024/01/11 09:18:22;;;;;;;5.18;1.92;;;4.50;59.70;;;;;;5011538;28;20037;-79
2024/01/11 09:20:49;;;;;;;2.40;1.60;;;4.50;59.60;;;;;;5018943;28;20034;-78
2024/01/11 09:23:16;;;;;;;2.65;1.73;;;4.50;59.60;;;;;;5020252;28;20048;-76
2024/01/11 09:25:42;;;;;;;3.60;1.67;;;4.50;59.60;;;;;;5008573;28;20033;-77
2024/01/11 09:28:08;;;;;;;2.80;2.13;;;4.60;59.70;;;;;;5009383;28;20038;-75
2024/01/11 09:30:34;;;;;;;3.13;1.90;;;4.60;59.70;;;;;;5019835;28;20056;-77
2024/01/11 09:33:00;;;;;;;3.10;1.80;;;4.60;59.60;;;;;;5020828;28;20026;-74
2024/01/11 09:35:27;;;;;;;7.03;1.90;;;4.60;59.60;;;;;;5017857;28;20033;-75
2024/01/11 09:37:53;;;;;;;3.80;1.42;;;4.60;59.60;;;;;;5017599;28;20037;-78
2024/01/11 09:40:19;;;;;;;3.40;1.60;;;4.60;59.50;;;;;;5019517;28;20041;-78
2024/01/11 09:42:45;;;;;;;2.63;1.77;;;4.60;59.50;;;;;;5018953;28;20041;-77
2024/01/11 09:45:16;;;;;;;2.40;1.60;;;4.70;59.70;;;;;;5019850;28;20478;-76
2024/01/11 09:47:45;;;;;;;3.40;1.58;;;4.60;59.40;;;;;;5021137;28;20057;-75
2024/01/11 09:50:17;;;;;;;3.17;1.88;;;4.70;59.60;;;;;;5003001;28;20081;-77
2024/01/11 09:52:50;;;;;;;2.38;1.55;;;4.70;59.60;;;;;;5021718;28;20552;-77
2024/01/11 09:55:18;;;;;;;2.92;1.60;;;4.70;59.60;;;;;;5017569;28;20664;-77
2024/01/11 09:57:46;;;;;;;3.22;1.70;;;4.80;59.70;;;;;;5011080;28;20061;-78
2024/01/11 10:00:24;;;;;;;3.88;1.75;;;4.70;59.50;;;;;;5014328;28;20037;-74
2024/01/11 10:02:51;;;;;;;3.00;1.38;;;4.70;59.40;;;;;;5017849;28;20029;-78
2024/01/11 10:05:18;;;;;;;2.25;1.45;;;4.80;59.60;;;;;;5011107;28;20588;-76
2024/01/11 10:07:45;;;;;;;3.33;1.58;;;4.80;59.50;;;;;;5008125;28;20515;-77
2024/01/11 10:10:15;;;;;;;2.85;1.30;;;4.80;59.50;;;;;;5020602;28;20543;-76
2024/01/11 10:12:42;;;;;;;4.00;1.65;;;4.80;59.50;;;;;;5010087;28;20034;-76
2024/01/11 10:15:09;;;;;;;2.72;1.40;;;4.80;59.40;;;;;;5015105;28;20339;-75
2024/01/11 10:17:36;;;;;;;3.38;1.50;;;4.90;59.60;;;;;;5017076;28;20121;-77
2024/01/11 10:20:04;;;;;;;2.42;1.30;;;4.90;59.50;;;;;;5011412;28;20156;-77
2024/01/11 10:22:30;;;;;;;2.88;1.50;;;4.90;59.40;;;;;;5001990;28;20064;-78
2024/01/11 10:25:22;;;;;;;2.20;1.35;;;5.00;59.50;;;;;;5015678;28;20505;-77
2024/01/11 10:27:48;;;;;;;3.13;1.42;;;5.00;59.40;;;;;;5033138;28;20025;-77
2024/01/11 10:30:16;;;;;;;3.50;1.95;;;5.00;59.40;;;;;;5009160;28;20042;-75
2024/01/11 10:32:46;;;;;;;2.47;1.50;;;5.10;59.50;;;;;;5018192;28;20029;-77
2024/01/11 10:35:12;;;;;;;2.53;1.25;;;5.10;59.50;;;;;;5020685;28;20183;-77
2024/01/11 10:37:38;;;;;;;3.55;1.42;;;5.00;59.30;;;;;;5015453;28;20120;-78
2024/01/11 10:40:15;;;;;;;3.80;1.40;;;5.10;59.50;;;;;;5005417;28;20342;-77
2024/01/11 10:42:46;;;;;;;3.20;1.92;;;5.10;59.40;;;;;;5021700;28;20509;-75
2024/01/11 10:45:16;;;;;;;2.90;1.40;;;5.10;59.40;;;;;;5009023;28;20120;-76
2024/01/11 10:47:55;;;;;;;4.25;1.58;;;5.10;59.30;;;;;;5017932;28;20059;-77
2024/01/11 10:50:23;;;;;;;3.35;1.15;;;5.10;59.30;;;;;;5023613;28;20045;-77
2024/01/11 10:53:11;;;;;;;2.45;1.20;;;5.10;59.30;;;;;;5039222;28;20026;-76
2024/01/11 10:55:42;;;;;;;5.00;1.65;;;5.10;59.30;;;;;;5032731;28;20041;-74
2024/01/11 10:58:10;;;;;;;2.35;1.55;;;5.10;59.80;;;;;;5021281;28;20043;-76
2024/01/11 11:00:39;;;;;;;8.05;1.77;;;5.20;59.40;;;;;;5033425;28;20022;-74
2024/01/11 11:03:07;;;;;;;2.35;1.15;;;5.20;59.40;;;;;;5025024;28;20064;-75
2024/01/11 11:05:37;;;;;;;3.88;1.70;;;5.20;59.40;;;;;;5031904;28;20029;-75
2024/01/11 11:08:05;;;;;;;2.42;1.10;;;5.20;59.40;;;;;;5021241;28;20059;-73
2024/01/11 11:10:34;;;;;;;1.73;1.13;;;5.20;59.30;;;;;;5006326;28;20838;-78
2024/01/11 11:13:00;;;;;;;2.70;1.85;;;5.30;59.50;;;;;;4999524;28;20030;-77
2024/01/11 11:15:29;;;;;;;4.72;1.20;;;5.30;59.40;;;;;;4999468;28;20025;-77
2024/01/11 11:17:57;;;;;;;3.15;1.48;;;5.30;59.30;;;;;;5016263;28;20095;-78
2024/01/11 11:20:23;;;;;;;2.33;1.48;;;5.40;59.40;;;;;;5018801;28;20560;-75
2024/01/11 11:23:10;;;;;;;2.95;1.25;;;5.40;59.40;;;;;;5019272;28;20546;-76
2024/01/11 11:25:38;;;;;;;2.53;1.35;;;5.40;59.30;;;;;;5007920;28;20083;-77
2024/01/11 11:28:05;;;;;;;2.53;1.50;;;5.40;59.30;;;;;;5006390;28;20064;-77
2024/01/11 11:30:31;;;;;;;1.83;1.48;;;5.40;59.20;;;;;;5006500;28;20110;-77
2024/01/11 11:33:20;;;;;;;1.58;1.25;;;5.50;59.40;;;;;;5014183;28;20393;-77
2024/01/11 11:35:47;;;;;;;1.80;1.38;;;5.50;59.40;;;;;;5015435;28;20104;-74
2024/01/11 11:38:33;;;;;;;2.25;1.35;;;5.60;59.60;;;;;;4998109;28;20197;-78
2024/01/11 11:41:00;;;;;;;1.75;1.27;;;5.50;59.30;;;;;;5009309;28;20356;-74
2024/01/11 11:43:28;;;;;;;2.22;1.58;;;5.60;59.40;;;;;;5014590;28;20113;-79
2024/01/11 11:45:54;;;;;;;2.25;1.65;;;5.60;59.40;;;;;;5015133;28;20040;-78
2024/01/11 11:48:32;;;;;;;2.97;2.08;;;5.60;59.40;;;;;;5014569;28;20034;-78
2024/01/11 11:51:06;;;;;;;3.67;2.15;;;5.60;59.30;;;;;;5012734;28;20064;-78
2024/01/11 11:53:36;;;;;;;4.50;2.03;;;5.60;59.30;;;;;;5019109;28;20290;-78
2024/01/11 11:56:02;;;;;;;2.00;1.80;;;5.70;59.40;;;;;;5015093;28;20087;-78
2024/01/11 11:58:33;;;;;;;2.95;1.92;;;5.70;59.40;;;;;;5010874;28;20068;-77
2024/01/11 12:01:01;;;;;;;4.72;2.22;;;5.70;59.30;;;;;;5011069;28;20041;-76
2024/01/11 12:03:37;;;;;;;2.17;1.90;;;5.70;59.30;;;;;;5008628;28;20030;-75
2024/01/11 12:06:05;;;;;;;4.25;1.90;;;5.80;59.40;;;;;;5003210;28;20088;-75
2024/01/11 12:08:32;;;;;;;2.70;2.10;;;5.80;59.40;;;;;;5010903;28;20557;-78
2024/01/11 12:10:58;;;;;;;3.25;1.85;;;5.80;59.30;;;;;;5014705;28;20033;-78
2024/01/11 12:13:25;;;;;;;4.70;1.80;;;5.90;59.40;;;;;;5017695;28;20038;-77
2024/01/11 12:15:52;;;;;;;3.10;1.90;;;5.90;59.30;;;;;;5009889;28;20042;-78
2024/01/11 12:18:18;;;;;;;3.50;1.75;;;5.90;59.20;;;;;;5010377;28;20036;-77
2024/01/11 12:20:45;;;;;;;2.72;1.98;;;6.00;59.30;;;;;;5008440;28;20068;-74
2024/01/11 12:23:13;;;;;;;2.00;1.77;;;6.00;59.30;;;;;;5014892;28;20040;-79
2024/01/11 12:25:40;;;;;;;2.50;1.92;;;6.00;59.30;;;;;;5019090;28;20087;-79
2024/01/11 12:28:07;;;;;;;2.92;1.83;;;6.00;59.20;;;;;;5009330;28;20041;-78
2024/01/11 12:30:33;;;;;;;3.47;2.28;;;6.00;59.30;;;;;;5020405;28;20395;-77
2024/01/11 12:33:03;;;;;;;1.90;1.67;;;6.10;59.40;;;;;;5015141;28;20116;-78
2024/01/11 12:35:31;;;;;;;2.05;1.85;;;6.10;59.30;;;;;;5018530;28;20389;-74
2024/01/11 12:38:04;;;;;;;5.22;2.90;;;6.20;59.40;;;;;;5021604;28;20025;-74
2024/01/11 12:40:34;;;;;;;1.95;1.70;;;6.30;59.40;;;;;;5020420;28;20034;-78
2024/01/11 12:43:00;;;;;;;4.72;2.08;;;6.30;59.80;;;;;;5019203;28;20450;-77
2024/01/11 12:45:27;;;;;;;1.80;1.70;;;6.40;59.40;;;;;;5016434;28;20030;-78
2024/01/11 12:47:54;;;;;;;4.65;1.95;;;6.40;59.30;;;;;;5003230;28;20057;-75
2024/01/11 12:50:20;;;;;;;1.98;1.75;;;6.40;59.20;;;;;;5010120;28;20042;-74
2024/01/11 12:53:08;;;;;;;2.03;1.40;;;6.50;59.30;;;;;;5008950;28;20124;-76
2024/01/11 12:55:35;;;;;;;1.63;1.52;;;6.60;59.20;;;;;;5015878;28;20046;-73
2024/01/11 12:58:06;;;;;;;2.35;1.75;;;6.70;59.30;;;;;;5007484;28;20037;-76